sensor_id;sensor_type;location;lat;lon;timestamp;pressure;altitude;pressure_sealevel;temperature;humidity
64876;BME280;51369;49.862;9.908;2023-04-10T00:02:21;99052.38;;;5.57;68.09
64876;BME280;51369;49.862;9.908;2023-04-10T00:04:47;99057.75;;;5.56;67.16
64876;BME280;51369;49.862;9.908;2023-04-10T00:07:13;99056.88;;;5.54;67.20
64876;BME280;51369;49.862;9.908;2023-04-10T00:09:38;99058.69;;;5.50;68.02
64876;BME280;51369;49.862;9.908;2023-04-10T00:12:04;99057.84;;;5.48;68.70
64876;BME280;51369;49.862;9.908;2023-04-10T00:14:30;99055.13;;;5.50;68.53
64876;BME280;51369;49.862;9.908;2023-04-10T00:16:56;99058.69;;;5.52;68.79
64876;BME280;51369;49.862;9.908;2023-04-10T00:19:21;99063.09;;;5.56;68.43
64876;BME280;51369;49.862;9.908;2023-04-10T00:21:47;99058.63;;;5.58;68.54
64876;BME280;51369;49.862;9.908;2023-04-10T00:24:12;99048.78;;;5.60;69.02
64876;BME280;51369;49.862;9.908;2023-04-10T00:26:39;99054.13;;;5.60;69.00
64876;BME280;51369;49.862;9.908;2023-04-10T00:29:04;99048.78;;;5.59;68.12
64876;BME280;51369;49.862;9.908;2023-04-10T00:31:30;99045.25;;;5.56;68.58
64876;BME280;51369;49.862;9.908;2023-04-10T00:33:56;99044.38;;;5.54;68.05
64876;BME280;51369;49.862;9.908;2023-04-10T00:36:21;99046.19;;;5.51;68.17
64876;BME280;51369;49.862;9.908;2023-04-10T00:38:48;99040.00;;;5.46;67.89
64876;BME280;51369;49.862;9.908;2023-04-10T00:41:14;99047.22;;;5.41;68.07
64876;BME280;51369;49.862;9.908;2023-04-10T00:43:40;99038.34;;;5.36;67.82
64876;BME280;51369;49.862;9.908;2023-04-10T00:46:06;99030.34;;;5.31;68.58
64876;BME280;51369;49.862;9.908;2023-04-10T00:48:32;99026.81;;;5.28;69.15
64876;BME280;51369;49.862;9.908;2023-04-10T00:50:59;99025.09;;;5.23;68.75
64876;BME280;51369;49.862;9.908;2023-04-10T00:53:25;99026.00;;;5.21;68.93
64876;BME280;51369;49.862;9.908;2023-04-10T00:55:51;99025.19;;;5.19;69.85
64876;BME280;51369;49.862;9.908;2023-04-10T00:58:17;99024.31;;;5.17;69.11
64876;BME280;51369;49.862;9.908;2023-04-10T01:00:46;99025.25;;;5.13;68.87
64876;BME280;51369;49.862;9.908;2023-04-10T01:03:12;99019.91;;;5.10;69.22
64876;BME280;51369;49.862;9.908;2023-04-10T01:05:50;99012.84;;;5.04;69.17
64876;BME280;51369;49.862;9.908;2023-04-10T01:11:06;99020.03;;;4.98;68.76
64876;BME280;51369;49.862;9.908;2023-04-10T01:13:40;99030.75;;;4.98;69.32
64876;BME280;51369;49.862;9.908;2023-04-10T01:16:15;99032.59;;;4.91;69.26
64876;BME280;51369;49.862;9.908;2023-04-10T01:18:51;99033.53;;;4.87;69.43
64876;BME280;51369;49.862;9.908;2023-04-10T01:21:20;99031.78;;;4.83;69.96
64876;BME280;51369;49.862;9.908;2023-04-10T01:29:19;99035.41;;;4.76;70.43
64876;BME280;51369;49.862;9.908;2023-04-10T01:31:51;99038.97;;;4.76;70.93
64876;BME280;51369;49.862;9.908;2023-04-10T01:34:35;99037.19;;;4.77;72.01
64876;BME280;51369;49.862;9.908;2023-04-10T01:37:11;99042.50;;;4.80;71.23
64876;BME280;51369;49.862;9.908;2023-04-10T01:39:38;99051.41;;;4.82;71.61
64876;BME280;51369;49.862;9.908;2023-04-10T01:42:06;99053.16;;;4.84;71.82
64876;BME280;51369;49.862;9.908;2023-04-10T01:44:38;99053.13;;;4.87;71.81
64876;BME280;51369;49.862;9.908;2023-04-10T01:47:05;99054.03;;;4.88;70.82
64876;BME280;51369;49.862;9.908;2023-04-10T01:49:31;99055.81;;;4.89;71.17
64876;BME280;51369;49.862;9.908;2023-04-10T01:52:01;99059.38;;;4.88;71.57
64876;BME280;51369;49.862;9.908;2023-04-10T01:54:28;99058.47;;;4.89;71.51
64876;BME280;51369;49.862;9.908;2023-04-10T01:56:55;99060.28;;;4.87;71.32
64876;BME280;51369;49.862;9.908;2023-04-10T01:59:23;99061.22;;;4.83;70.59
64876;BME280;51369;49.862;9.908;2023-04-10T02:01:55;99057.69;;;4.79;70.40
64876;BME280;51369;49.862;9.908;2023-04-10T02:04:20;99057.72;;;4.75;70.50
64876;BME280;51369;49.862;9.908;2023-04-10T02:09:51;99048.03;;;4.60;70.21
64876;BME280;51369;49.862;9.908;2023-04-10T02:12:27;99047.19;;;4.55;69.78
64876;BME280;51369;49.862;9.908;2023-04-10T02:14:56;99043.66;;;4.51;69.36
64876;BME280;51369;49.862;9.908;2023-04-10T02:17:26;99045.47;;;4.45;68.99
64876;BME280;51369;49.862;9.908;2023-04-10T02:19:53;99037.50;;;4.40;68.75
64876;BME280;51369;49.862;9.908;2023-04-10T02:22:19;99033.97;;;4.35;69.30
64876;BME280;51369;49.862;9.908;2023-04-10T02:24:46;99033.09;;;4.30;68.77
64876;BME280;51369;49.862;9.908;2023-04-10T02:27:12;99034.06;;;4.23;69.27
64876;BME280;51369;49.862;9.908;2023-04-10T02:29:37;99036.78;;;4.14;69.12
64876;BME280;51369;49.862;9.908;2023-04-10T02:32:05;99036.84;;;4.03;69.63
64876;BME280;51369;49.862;9.908;2023-04-10T02:34:31;99030.66;;;3.97;69.55
64876;BME280;51369;49.862;9.908;2023-04-10T02:36:57;99037.81;;;3.91;70.69
64876;BME280;51369;49.862;9.908;2023-04-10T02:39:24;99031.59;;;3.86;71.21
64876;BME280;51369;49.862;9.908;2023-04-10T02:41:50;99035.16;;;3.85;70.43
64876;BME280;51369;49.862;9.908;2023-04-10T02:44:16;99032.50;;;3.82;70.48
64876;BME280;51369;49.862;9.908;2023-04-10T02:46:42;99031.63;;;3.82;70.53
64876;BME280;51369;49.862;9.908;2023-04-10T02:49:08;99037.88;;;3.79;71.62
64876;BME280;51369;49.862;9.908;2023-04-10T02:51:34;99034.31;;;3.77;72.42
64876;BME280;51369;49.862;9.908;2023-04-10T02:54:00;99038.78;;;3.75;72.21
64876;BME280;51369;49.862;9.908;2023-04-10T02:56:29;99031.66;;;3.74;72.57
64876;BME280;51369;49.862;9.908;2023-04-10T02:58:54;99031.66;;;3.74;73.41
64876;BME280;51369;49.862;9.908;2023-04-10T03:01:20;99032.56;;;3.76;73.91
64876;BME280;51369;49.862;9.908;2023-04-10T03:03:47;99028.09;;;3.77;72.43
64876;BME280;51369;49.862;9.908;2023-04-10T03:06:19;99026.31;;;3.74;73.30
64876;BME280;51369;49.862;9.908;2023-04-10T03:08:46;99031.66;;;3.74;73.75
64876;BME280;51369;49.862;9.908;2023-04-10T03:11:12;99025.44;;;3.75;73.64
64876;BME280;51369;49.862;9.908;2023-04-10T03:13:38;99024.53;;;3.76;74.27
64876;BME280;51369;49.862;9.908;2023-04-10T03:16:03;99026.31;;;3.77;74.01
64876;BME280;51369;49.862;9.908;2023-04-10T03:18:29;99026.31;;;3.79;74.98
64876;BME280;51369;49.862;9.908;2023-04-10T03:20:56;99025.41;;;3.81;74.13
64876;BME280;51369;49.862;9.908;2023-04-10T03:23:22;99027.16;;;3.85;73.74
64876;BME280;51369;49.862;9.908;2023-04-10T03:25:49;99017.34;;;3.87;74.77
64876;BME280;51369;49.862;9.908;2023-04-10T03:28:18;99021.78;;;3.91;74.03
64876;BME280;51369;49.862;9.908;2023-04-10T03:30:43;99023.56;;;3.92;74.95
64876;BME280;51369;49.862;9.908;2023-04-10T03:33:09;99027.09;;;3.95;75.13
64876;BME280;51369;49.862;9.908;2023-04-10T03:35:34;99019.09;;;3.95;75.09
64876;BME280;51369;49.862;9.908;2023-04-10T03:37:59;99011.97;;;3.95;75.04
64876;BME280;51369;49.862;9.908;2023-04-10T03:40:25;99009.28;;;3.95;74.75
64876;BME280;51369;49.862;9.908;2023-04-10T03:42:50;99015.53;;;3.94;73.80
64876;BME280;51369;49.862;9.908;2023-04-10T03:45:16;99009.31;;;3.92;73.86
64876;BME280;51369;49.862;9.908;2023-04-10T03:47:41;99003.09;;;3.88;74.61
64876;BME280;51369;49.862;9.908;2023-04-10T03:50:09;99007.59;;;3.83;72.97
64876;BME280;51369;49.862;9.908;2023-04-10T03:52:43;99011.19;;;3.78;72.74
64876;BME280;51369;49.862;9.908;2023-04-10T03:55:13;99002.28;;;3.74;72.96
64876;BME280;51369;49.862;9.908;2023-04-10T03:57:47;99005.88;;;3.69;72.42
64876;BME280;51369;49.862;9.908;2023-04-10T04:00:15;99008.59;;;3.63;72.15
64876;BME280;51369;49.862;9.908;2023-04-10T04:02:47;99009.50;;;3.58;72.02
64876;BME280;51369;49.862;9.908;2023-04-10T04:05:26;99021.97;;;3.55;71.50
64876;BME280;51369;49.862;9.908;2023-04-10T04:08:20;99027.31;;;3.50;71.48
64876;BME280;51369;49.862;9.908;2023-04-10T04:11:04;99018.50;;;3.41;71.81
64876;BME280;51369;49.862;9.908;2023-04-10T04:13:51;99023.88;;;3.32;72.40
64876;BME280;51369;49.862;9.908;2023-04-10T04:16:33;99024.78;;;3.24;72.26
64876;BME280;51369;49.862;9.908;2023-04-10T04:19:23;99015.03;;;3.17;72.95
64876;BME280;51369;49.862;9.908;2023-04-10T04:22:04;99012.38;;;3.13;72.73
64876;BME280;51369;49.862;9.908;2023-04-10T04:24:47;99010.59;;;3.10;72.41
64876;BME280;51369;49.862;9.908;2023-04-10T04:27:16;99011.50;;;3.09;73.39
64876;BME280;51369;49.862;9.908;2023-04-10T04:29:49;99023.06;;;3.08;72.54
64876;BME280;51369;49.862;9.908;2023-04-10T04:32:33;99021.28;;;3.06;73.39
64876;BME280;51369;49.862;9.908;2023-04-10T04:35:14;99015.06;;;3.04;73.76
64876;BME280;51369;49.862;9.908;2023-04-10T04:37:58;99016.84;;;3.06;74.24
64876;BME280;51369;49.862;9.908;2023-04-10T04:40:45;99015.94;;;3.06;73.72
64876;BME280;51369;49.862;9.908;2023-04-10T04:43:29;99021.28;;;3.07;74.14
64876;BME280;51369;49.862;9.908;2023-04-10T04:46:02;99020.38;;;3.08;74.39
64876;BME280;51369;49.862;9.908;2023-04-10T04:48:50;99023.06;;;3.10;73.58
64876;BME280;51369;49.862;9.908;2023-04-10T04:51:29;99015.94;;;3.12;72.62
64876;BME280;51369;49.862;9.908;2023-04-10T04:54:03;99028.38;;;3.13;73.12
64876;BME280;51369;49.862;9.908;2023-04-10T04:56:47;99013.25;;;3.15;73.65
64876;BME280;51369;49.862;9.908;2023-04-10T04:59:47;99006.13;;;3.18;73.25
64876;BME280;51369;49.862;9.908;2023-04-10T05:02:35;99013.22;;;3.22;73.00
64876;BME280;51369;49.862;9.908;2023-04-10T05:05:32;99016.78;;;3.28;73.34
64876;BME280;51369;49.862;9.908;2023-04-10T05:08:08;99021.22;;;3.30;72.51
64876;BME280;51369;49.862;9.908;2023-04-10T05:10:58;99017.63;;;3.34;72.49
64876;BME280;51369;49.862;9.908;2023-04-10T05:13:39;99014.97;;;3.36;73.13
64876;BME280;51369;49.862;9.908;2023-04-10T05:16:11;99009.59;;;3.39;73.10
64876;BME280;51369;49.862;9.908;2023-04-10T05:18:54;99017.59;;;3.45;73.57
64876;BME280;51369;49.862;9.908;2023-04-10T05:21:38;99021.09;;;3.50;73.52
64876;BME280;51369;49.862;9.908;2023-04-10T05:24:22;99024.63;;;3.55;72.71
64876;BME280;51369;49.862;9.908;2023-04-10T05:27:24;99013.03;;;3.60;73.07
64876;BME280;51369;49.862;9.908;2023-04-10T05:30:21;99014.81;;;3.65;73.59
64876;BME280;51369;49.862;9.908;2023-04-10T05:33:22;99015.66;;;3.71;73.11
64876;BME280;51369;49.862;9.908;2023-04-10T05:36:07;99019.19;;;3.78;73.97
64876;BME280;51369;49.862;9.908;2023-04-10T05:38:49;99026.25;;;3.89;73.42
64876;BME280;51369;49.862;9.908;2023-04-10T05:41:32;99021.69;;;4.04;73.52
64876;BME280;51369;49.862;9.908;2023-04-10T05:44:13;99026.06;;;4.17;72.49
64876;BME280;51369;49.862;9.908;2023-04-10T05:46:54;99027.78;;;4.29;72.47
64876;BME280;51369;49.862;9.908;2023-04-10T05:49:24;99024.13;;;4.40;72.46
64876;BME280;51369;49.862;9.908;2023-04-10T05:52:19;99029.34;;;4.57;73.23
64876;BME280;51369;49.862;9.908;2023-04-10T05:55:03;99029.16;;;4.78;73.30
64876;BME280;51369;49.862;9.908;2023-04-10T05:57:54;99026.25;;;5.01;72.55
64876;BME280;51369;49.862;9.908;2023-04-10T06:00:31;99024.16;;;5.26;72.22
64876;BME280;51369;49.862;9.908;2023-04-10T06:03:17;99021.22;;;5.49;71.46
64876;BME280;51369;49.862;9.908;2023-04-10T06:05:49;99021.84;;;5.71;72.09
64876;BME280;51369;49.862;9.908;2023-04-10T06:08:15;99019.75;;;5.96;71.23
64876;BME280;51369;49.862;9.908;2023-04-10T06:10:41;99019.44;;;6.17;70.60
64876;BME280;51369;49.862;9.908;2023-04-10T06:13:09;99022.72;;;6.37;70.04
64876;BME280;51369;49.862;9.908;2023-04-10T06:15:34;99012.56;;;6.58;69.42
64876;BME280;51369;49.862;9.908;2023-04-10T06:18:00;99011.28;;;6.80;69.25
64876;BME280;51369;49.862;9.908;2023-04-10T06:20:26;99014.47;;;7.00;68.65
64876;BME280;51369;49.862;9.908;2023-04-10T06:22:51;99013.19;;;7.19;68.08
64876;BME280;51369;49.862;9.908;2023-04-10T06:25:16;99011.94;;;7.39;67.94
64876;BME280;51369;49.862;9.908;2023-04-10T06:27:42;99011.44;;;7.63;68.15
64876;BME280;51369;49.862;9.908;2023-04-10T06:30:09;99004.59;;;7.90;68.28
64876;BME280;51369;49.862;9.908;2023-04-10T06:32:35;99010.16;;;8.21;68.80
64876;BME280;51369;49.862;9.908;2023-04-10T06:35:01;99002.31;;;8.51;67.72
64876;BME280;51369;49.862;9.908;2023-04-10T06:37:29;99002.47;;;8.78;67.88
64876;BME280;51369;49.862;9.908;2023-04-10T06:40:02;99002.56;;;9.09;67.54
64876;BME280;51369;49.862;9.908;2023-04-10T06:42:28;98995.38;;;9.42;66.82
64876;BME280;51369;49.862;9.908;2023-04-10T06:44:59;99001.69;;;9.72;66.61
64876;BME280;51369;49.862;9.908;2023-04-10T06:47:24;99003.66;;;9.97;65.06
64876;BME280;51369;49.862;9.908;2023-04-10T06:49:49;99005.66;;;10.21;64.74
64876;BME280;51369;49.862;9.908;2023-04-10T06:52:16;99003.91;;;10.47;64.63
64876;BME280;51369;49.862;9.908;2023-04-10T06:54:41;99005.81;;;10.71;64.47
64876;BME280;51369;49.862;9.908;2023-04-10T06:57:07;99006.00;;;10.91;63.60
64876;BME280;51369;49.862;9.908;2023-04-10T06:59:32;99003.66;;;11.07;63.82
64876;BME280;51369;49.862;9.908;2023-04-10T07:02:00;99003.97;;;11.24;62.82
64876;BME280;51369;49.862;9.908;2023-04-10T07:04:25;99003.38;;;11.41;62.54
64876;BME280;51369;49.862;9.908;2023-04-10T07:06:51;99002.88;;;11.55;62.98
64876;BME280;51369;49.862;9.908;2023-04-10T07:09:16;99003.34;;;11.66;61.81
64876;BME280;51369;49.862;9.908;2023-04-10T07:11:42;99001.16;;;11.77;61.64
64876;BME280;51369;49.862;9.908;2023-04-10T07:14:07;99002.47;;;11.90;61.68
64876;BME280;51369;49.862;9.908;2023-04-10T07:16:33;99002.75;;;12.06;60.96
64876;BME280;51369;49.862;9.908;2023-04-10T07:18:58;99002.06;;;12.23;59.93
64876;BME280;51369;49.862;9.908;2023-04-10T07:21:23;99003.22;;;12.39;60.16
64876;BME280;51369;49.862;9.908;2023-04-10T07:23:49;98994.72;;;12.48;59.58
64876;BME280;51369;49.862;9.908;2023-04-10T07:26:15;98998.88;;;12.57;59.61
64876;BME280;51369;49.862;9.908;2023-04-10T07:28:40;99001.22;;;12.66;60.12
64876;BME280;51369;49.862;9.908;2023-04-10T07:31:06;99006.13;;;12.78;59.36
64876;BME280;51369;49.862;9.908;2023-04-10T07:33:32;98998.56;;;12.86;58.39
64876;BME280;51369;49.862;9.908;2023-04-10T07:35:58;98998.31;;;12.92;58.61
64876;BME280;51369;49.862;9.908;2023-04-10T07:38:24;98999.00;;;12.97;58.97
64876;BME280;51369;49.862;9.908;2023-04-10T07:40:55;98991.75;;;12.98;57.63
64876;BME280;51369;49.862;9.908;2023-04-10T07:43:20;99000.75;;;12.98;58.04
64876;BME280;51369;49.862;9.908;2023-04-10T07:45:46;98999.75;;;13.01;58.25
64876;BME280;51369;49.862;9.908;2023-04-10T07:48:12;99000.50;;;13.04;57.67
64876;BME280;51369;49.862;9.908;2023-04-10T07:50:37;98998.59;;;13.07;58.18
64876;BME280;51369;49.862;9.908;2023-04-10T07:53:02;98992.25;;;13.08;57.31
64876;BME280;51369;49.862;9.908;2023-04-10T07:55:36;98996.66;;;13.10;57.98
64876;BME280;51369;49.862;9.908;2023-04-10T07:58:02;98987.50;;;13.13;58.01
64876;BME280;51369;49.862;9.908;2023-04-10T08:00:27;98985.50;;;13.18;57.38
64876;BME280;51369;49.862;9.908;2023-04-10T08:02:52;98986.25;;;13.21;57.50
64876;BME280;51369;49.862;9.908;2023-04-10T08:05:18;98978.25;;;13.18;56.53
64876;BME280;51369;49.862;9.908;2023-04-10T08:07:43;98982.88;;;13.15;57.01
64876;BME280;51369;49.862;9.908;2023-04-10T08:10:10;98980.38;;;13.10;56.79
64876;BME280;51369;49.862;9.908;2023-04-10T08:12:35;98984.09;;;13.08;57.08
64876;BME280;51369;49.862;9.908;2023-04-10T08:15:00;98976.97;;;13.05;56.81
64876;BME280;51369;49.862;9.908;2023-04-10T08:17:26;98980.72;;;13.02;57.26
64876;BME280;51369;49.862;9.908;2023-04-10T08:19:51;98979.75;;;13.03;57.23
64876;BME280;51369;49.862;9.908;2023-04-10T08:22:17;98980.50;;;13.07;57.72
64876;BME280;51369;49.862;9.908;2023-04-10T08:24:42;98977.59;;;13.12;57.23
64876;BME280;51369;49.862;9.908;2023-04-10T08:27:08;98974.72;;;13.16;57.34
64876;BME280;51369;49.862;9.908;2023-04-10T08:29:33;98979.81;;;13.24;57.17
64876;BME280;51369;49.862;9.908;2023-04-10T08:31:58;98974.13;;;13.30;57.25
64876;BME280;51369;49.862;9.908;2023-04-10T08:34:25;98969.25;;;13.38;57.12
64876;BME280;51369;49.862;9.908;2023-04-10T08:36:51;98956.34;;;13.43;56.55
64876;BME280;51369;49.862;9.908;2023-04-10T08:39:16;98957.84;;;13.50;57.53
64876;BME280;51369;49.862;9.908;2023-04-10T08:41:42;98954.78;;;13.58;56.32
64876;BME280;51369;49.862;9.908;2023-04-10T08:44:08;98955.53;;;13.61;56.10
64876;BME280;51369;49.862;9.908;2023-04-10T08:46:35;98952.53;;;13.67;56.85
64876;BME280;51369;49.862;9.908;2023-04-10T08:49:03;98947.63;;;13.76;56.97
64876;BME280;51369;49.862;9.908;2023-04-10T08:51:42;98939.25;;;13.80;56.51
64876;BME280;51369;49.862;9.908;2023-04-10T08:54:13;98947.19;;;13.85;55.87
64876;BME280;51369;49.862;9.908;2023-04-10T08:56:46;98940.56;;;13.90;56.29
64876;BME280;51369;49.862;9.908;2023-04-10T08:59:14;98937.63;;;13.95;55.77
64876;BME280;51369;49.862;9.908;2023-04-10T09:01:40;98935.59;;;14.00;55.56
64876;BME280;51369;49.862;9.908;2023-04-10T09:04:06;98935.22;;;14.08;56.11
64876;BME280;51369;49.862;9.908;2023-04-10T09:06:31;98929.41;;;14.15;55.36
64876;BME280;51369;49.862;9.908;2023-04-10T09:08:57;98932.63;;;14.23;55.51
64876;BME280;51369;49.862;9.908;2023-04-10T09:14:24;98926.34;;;14.42;55.10
64876;BME280;51369;49.862;9.908;2023-04-10T09:16:51;98922.28;;;14.50;54.67
64876;BME280;51369;49.862;9.908;2023-04-10T09:19:36;98918.22;;;14.59;54.77
64876;BME280;51369;49.862;9.908;2023-04-10T09:22:02;98913.94;;;14.72;54.49
64876;BME280;51369;49.862;9.908;2023-04-10T09:24:27;98917.13;;;14.80;54.12
64876;BME280;51369;49.862;9.908;2023-04-10T09:26:53;98910.28;;;14.90;54.15
64876;BME280;51369;49.862;9.908;2023-04-10T09:29:19;98901.78;;;14.96;53.89
64876;BME280;51369;49.862;9.908;2023-04-10T09:31:44;98896.84;;;15.05;53.24
64876;BME280;51369;49.862;9.908;2023-04-10T09:34:16;98892.75;;;15.13;53.29
64876;BME280;51369;49.862;9.908;2023-04-10T09:36:43;98886.75;;;15.24;53.79
64876;BME280;51369;49.862;9.908;2023-04-10T09:39:10;98887.38;;;15.29;53.11
64876;BME280;51369;49.862;9.908;2023-04-10T09:41:52;98883.53;;;15.33;52.53
64876;BME280;51369;49.862;9.908;2023-04-10T09:44:37;98882.94;;;15.44;52.86
64876;BME280;51369;49.862;9.908;2023-04-10T09:47:18;98877.81;;;15.55;52.36
64876;BME280;51369;49.862;9.908;2023-04-10T09:50:04;98885.03;;;15.72;51.92
64876;BME280;51369;49.862;9.908;2023-04-10T09:52:31;98872.16;;;15.91;52.27
64876;BME280;51369;49.862;9.908;2023-04-10T09:54:59;98876.72;;;16.06;51.86
64876;BME280;51369;49.862;9.908;2023-04-10T09:57:29;98869.34;;;16.24;50.45
64876;BME280;51369;49.862;9.908;2023-04-10T09:59:56;98868.28;;;16.42;50.20
64876;BME280;51369;49.862;9.908;2023-04-10T10:02:23;98865.44;;;16.59;49.33
64876;BME280;51369;49.862;9.908;2023-04-10T10:04:50;98840.91;;;16.75;49.30
64876;BME280;51369;49.862;9.908;2023-04-10T10:07:20;98839.00;;;16.91;50.82
64876;BME280;51369;49.862;9.908;2023-04-10T10:09:47;98835.22;;;17.08;48.76
64876;BME280;51369;49.862;9.908;2023-04-10T10:12:21;98837.00;;;17.23;48.99
64876;BME280;51369;49.862;9.908;2023-04-10T10:20:29;98819.56;;;17.69;48.73
64876;BME280;51369;49.862;9.908;2023-04-10T10:22:57;98814.88;;;17.85;47.63
64876;BME280;51369;49.862;9.908;2023-04-10T10:25:23;98821.09;;;18.01;47.85
64876;BME280;51369;49.862;9.908;2023-04-10T10:27:50;98808.56;;;18.11;47.26
64876;BME280;51369;49.862;9.908;2023-04-10T10:30:18;98807.75;;;18.24;47.16
64876;BME280;51369;49.862;9.908;2023-04-10T10:32:45;98795.78;;;18.39;48.51
64876;BME280;51369;49.862;9.908;2023-04-10T10:35:12;98787.16;;;18.45;46.55
64876;BME280;51369;49.862;9.908;2023-04-10T10:37:38;98783.13;;;18.50;45.29
64876;BME280;51369;49.862;9.908;2023-04-10T10:40:18;98783.13;;;18.50;45.78
64876;BME280;51369;49.862;9.908;2023-04-10T10:48:06;98783.19;;;18.63;46.42
64876;BME280;51369;49.862;9.908;2023-04-10T10:53:42;98768.81;;;18.87;45.96
64876;BME280;51369;49.862;9.908;2023-04-10T10:58:49;98777.69;;;19.03;46.56
64876;BME280;51369;49.862;9.908;2023-04-10T11:01:15;98757.66;;;19.02;45.25
64876;BME280;51369;49.862;9.908;2023-04-10T11:03:41;98755.78;;;19.03;45.43
64876;BME280;51369;49.862;9.908;2023-04-10T11:06:10;98757.53;;;19.04;45.73
64876;BME280;51369;49.862;9.908;2023-04-10T11:08:47;98756.09;;;19.11;44.58
64876;BME280;51369;49.862;9.908;2023-04-10T11:11:15;98757.41;;;19.18;44.30
64876;BME280;51369;49.862;9.908;2023-04-10T11:16:42;98751.03;;;19.30;44.74
64876;BME280;51369;49.862;9.908;2023-04-10T11:19:09;98734.94;;;19.38;44.57
64876;BME280;51369;49.862;9.908;2023-04-10T11:22:04;98740.72;;;19.46;44.19
64876;BME280;51369;49.862;9.908;2023-04-10T11:24:50;98734.50;;;19.57;44.14
64876;BME280;51369;49.862;9.908;2023-04-10T11:30:25;98725.50;;;19.68;43.07
64876;BME280;51369;49.862;9.908;2023-04-10T11:32:52;98725.09;;;19.85;43.51
64876;BME280;51369;49.862;9.908;2023-04-10T11:35:18;98712.97;;;20.00;43.02
64876;BME280;51369;49.862;9.908;2023-04-10T11:37:44;98703.81;;;20.12;42.58
64876;BME280;51369;49.862;9.908;2023-04-10T11:40:10;98707.38;;;20.26;44.07
64876;BME280;51369;49.862;9.908;2023-04-10T11:42:35;98700.31;;;20.34;43.72
64876;BME280;51369;49.862;9.908;2023-04-10T11:45:24;98697.13;;;20.40;43.80
64876;BME280;51369;49.862;9.908;2023-04-10T11:47:51;98694.78;;;20.47;42.95
64876;BME280;51369;49.862;9.908;2023-04-10T11:50:18;98700.16;;;20.49;42.69
64876;BME280;51369;49.862;9.908;2023-04-10T11:52:49;98692.78;;;20.49;42.57
64876;BME280;51369;49.862;9.908;2023-04-10T11:55:15;98683.56;;;20.50;42.88
64876;BME280;51369;49.862;9.908;2023-04-10T11:57:41;98687.81;;;20.54;42.19
64876;BME280;51369;49.862;9.908;2023-04-10T12:00:07;98685.88;;;20.67;42.44
64876;BME280;51369;49.862;9.908;2023-04-10T12:02:33;98672.41;;;20.87;41.09
64876;BME280;51369;49.862;9.908;2023-04-10T12:04:58;98671.66;;;21.07;40.30
64876;BME280;51369;49.862;9.908;2023-04-10T12:07:24;98672.84;;;21.27;41.60
64876;BME280;51369;49.862;9.908;2023-04-10T12:09:59;98671.69;;;21.40;39.65
64876;BME280;51369;49.862;9.908;2023-04-10T12:12:35;98663.69;;;21.60;39.59
64876;BME280;51369;49.862;9.908;2023-04-10T12:15:01;98671.78;;;21.72;39.38
64876;BME280;51369;49.862;9.908;2023-04-10T12:17:27;98660.66;;;21.74;38.81
64876;BME280;51369;49.862;9.908;2023-04-10T12:19:53;98662.16;;;21.78;39.47
64876;BME280;51369;49.862;9.908;2023-04-10T12:22:18;98650.91;;;21.81;39.75
64876;BME280;51369;49.862;9.908;2023-04-10T12:24:49;98649.66;;;21.74;41.11
64876;BME280;51369;49.862;9.908;2023-04-10T12:27:16;98641.44;;;21.63;40.82
64876;BME280;51369;49.862;9.908;2023-04-10T12:29:43;98630.75;;;21.49;39.70
64876;BME280;51369;49.862;9.908;2023-04-10T12:32:08;98627.50;;;21.43;40.82
64876;BME280;51369;49.862;9.908;2023-04-10T12:34:35;98619.38;;;21.42;40.78
64876;BME280;51369;49.862;9.908;2023-04-10T12:37:01;98611.75;;;21.46;40.66
64876;BME280;51369;49.862;9.908;2023-04-10T12:39:27;98594.03;;;21.50;39.89
64876;BME280;51369;49.862;9.908;2023-04-10T12:41:52;98602.75;;;21.55;40.02
64876;BME280;51369;49.862;9.908;2023-04-10T12:44:18;98596.75;;;21.61;40.73
64876;BME280;51369;49.862;9.908;2023-04-10T12:46:44;98591.59;;;21.67;40.09
64876;BME280;51369;49.862;9.908;2023-04-10T12:49:13;98594.97;;;21.71;40.51
64876;BME280;51369;49.862;9.908;2023-04-10T12:51:44;98584.09;;;21.69;41.91
64876;BME280;51369;49.862;9.908;2023-04-10T12:54:10;98589.84;;;21.66;40.06
64876;BME280;51369;49.862;9.908;2023-04-10T12:56:43;98592.44;;;21.79;39.78
64876;BME280;51369;49.862;9.908;2023-04-10T12:59:08;98588.13;;;21.97;40.32
64876;BME280;51369;49.862;9.908;2023-04-10T13:01:36;98583.88;;;22.04;40.71
64876;BME280;51369;49.862;9.908;2023-04-10T13:04:01;98583.22;;;22.01;40.01
64876;BME280;51369;49.862;9.908;2023-04-10T13:06:27;98580.13;;;21.94;39.82
64876;BME280;51369;49.862;9.908;2023-04-10T13:08:53;98573.03;;;21.92;38.95
64876;BME280;51369;49.862;9.908;2023-04-10T13:11:20;98572.16;;;21.91;39.70
64876;BME280;51369;49.862;9.908;2023-04-10T13:13:46;98551.16;;;21.90;40.41
64876;BME280;51369;49.862;9.908;2023-04-10T13:16:12;98557.94;;;21.86;40.84
64876;BME280;51369;49.862;9.908;2023-04-10T13:18:38;98551.22;;;21.79;41.57
64876;BME280;51369;49.862;9.908;2023-04-10T13:21:03;98543.75;;;21.70;38.66
64876;BME280;51369;49.862;9.908;2023-04-10T13:23:29;98540.53;;;21.65;40.57
64876;BME280;51369;49.862;9.908;2023-04-10T13:25:54;98539.91;;;21.61;41.10
64876;BME280;51369;49.862;9.908;2023-04-10T13:28:21;98539.56;;;21.55;41.16
64876;BME280;51369;49.862;9.908;2023-04-10T13:30:47;98537.47;;;21.47;38.60
64876;BME280;51369;49.862;9.908;2023-04-10T13:33:12;98535.19;;;21.52;38.97
64876;BME280;51369;49.862;9.908;2023-04-10T13:35:38;98532.28;;;21.65;39.13
64876;BME280;51369;49.862;9.908;2023-04-10T13:38:06;98524.13;;;21.74;37.47
64876;BME280;51369;49.862;9.908;2023-04-10T13:40:33;98527.09;;;21.83;39.66
64876;BME280;51369;49.862;9.908;2023-04-10T13:42:58;98517.22;;;21.80;38.38
64876;BME280;51369;49.862;9.908;2023-04-10T13:45:24;98519.38;;;21.76;38.13
64876;BME280;51369;49.862;9.908;2023-04-10T13:47:50;98515.00;;;21.74;38.92
64876;BME280;51369;49.862;9.908;2023-04-10T13:50:15;98512.53;;;21.71;39.86
64876;BME280;51369;49.862;9.908;2023-04-10T13:52:41;98516.28;;;21.70;38.57
64876;BME280;51369;49.862;9.908;2023-04-10T13:55:06;98501.53;;;21.71;37.69
64876;BME280;51369;49.862;9.908;2023-04-10T13:57:32;98510.25;;;21.76;36.58